createdAt,value
2018-06-29T00:00:06.866Z,67.65
2018-06-29T00:02:34.940Z,63.68
2018-06-29T00:05:03.102Z,69.35
2018-06-29T00:07:31.307Z,63.67
2018-06-29T00:09:59.367Z,60.58
2018-06-29T00:12:27.519Z,65.70
2018-06-29T00:14:55.735Z,65.62
2018-06-29T00:17:23.798Z,72.03
2018-06-29T00:19:51.924Z,68.65
2018-06-29T00:22:19.943Z,64.30
2018-06-29T00:24:48.133Z,72.80
2018-06-29T00:27:16.189Z,68.85
2018-06-29T00:29:44.244Z,63.80
2018-06-29T00:32:12.447Z,67.75
2018-06-29T00:34:40.496Z,65.62
2018-06-29T00:37:08.681Z,63.45
2018-06-29T00:39:36.979Z,66.92
2018-06-29T00:42:05.124Z,67.80
2018-06-29T00:44:33.218Z,64.90
2018-06-29T00:47:01.475Z,69.07
2018-06-29T00:49:29.773Z,64.82
2018-06-29T00:51:57.933Z,66.72
2018-06-29T00:54:25.955Z,65.17
2018-06-29T00:56:54.142Z,66.67
2018-06-29T00:59:21.981Z,63.45
2018-06-29T01:01:50.012Z,62.67
2018-06-29T01:04:18.363Z,59.33
2018-06-29T01:06:46.396Z,68.50
2018-06-29T01:09:14.440Z,61.75
2018-06-29T01:11:42.758Z,61.37
2018-06-29T01:14:10.884Z,59.85
2018-06-29T01:16:38.993Z,56.40
2018-06-29T01:19:07.336Z,59.90
2018-06-29T01:21:35.432Z,67.00
2018-06-29T01:24:03.810Z,63.87
2018-06-29T01:26:31.983Z,64.47
2018-06-29T01:29:00.241Z,69.57
2018-06-29T01:31:28.454Z,65.00
2018-06-29T01:33:56.526Z,69.17
2018-06-29T01:36:24.673Z,65.12
2018-06-29T01:38:52.867Z,62.23
2018-06-29T01:41:20.926Z,63.50
2018-06-29T01:43:49.317Z,63.75
2018-06-29T01:46:17.365Z,64.87
2018-06-29T01:48:45.584Z,69.60
2018-06-29T01:51:13.757Z,70.75
2018-06-29T01:53:41.805Z,70.40
2018-06-29T01:56:09.991Z,72.08
2018-06-29T01:58:38.159Z,74.97
2018-06-29T02:01:06.343Z,76.63
2018-06-29T02:03:34.517Z,87.12
2018-06-29T02:06:02.813Z,75.20
2018-06-29T02:08:30.863Z,82.53
2018-06-29T02:10:58.954Z,71.20
2018-06-29T02:13:27.008Z,76.10
2018-06-29T02:15:55.073Z,75.20
2018-06-29T02:18:23.260Z,70.55
2018-06-29T02:20:51.520Z,76.50
2018-06-29T02:23:19.631Z,73.20
2018-06-29T02:25:47.657Z,77.58
2018-06-29T02:28:15.688Z,75.62
2018-06-29T02:30:43.906Z,67.35
2018-06-29T02:33:12.122Z,71.28
2018-06-29T02:35:40.583Z,69.50
2018-06-29T02:38:08.861Z,76.40
2018-06-29T02:40:36.960Z,65.78
2018-06-29T02:43:05.116Z,71.57
2018-06-29T02:45:33.199Z,70.50
2018-06-29T02:48:01.245Z,72.10
2018-06-29T02:50:29.477Z,71.12
2018-06-29T02:52:57.630Z,71.33
2018-06-29T02:55:25.714Z,66.25
2018-06-29T02:57:53.861Z,72.22
2018-06-29T03:00:21.957Z,70.10
2018-06-29T03:02:50.146Z,67.72
2018-06-29T03:05:18.191Z,65.67
2018-06-29T03:07:47.189Z,62.00
2018-06-29T03:10:15.468Z,60.23
2018-06-29T03:12:48.223Z,59.53
2018-06-29T03:15:16.650Z,59.67
2018-06-29T03:17:45.008Z,60.10
2018-06-29T03:20:13.174Z,64.82
2018-06-29T03:22:41.264Z,68.40
2018-06-29T03:25:09.377Z,59.27
2018-06-29T03:27:37.507Z,59.25
2018-06-29T03:30:05.565Z,64.25
2018-06-29T03:32:33.756Z,59.55
2018-06-29T03:35:01.924Z,64.20
2018-06-29T03:37:30.009Z,59.63
2018-06-29T03:39:58.069Z,66.92
2018-06-29T03:42:26.252Z,61.02
2018-06-29T03:44:54.409Z,57.80
2018-06-29T03:47:22.921Z,65.10
2018-06-29T03:49:51.198Z,61.33
2018-06-29T03:52:19.410Z,59.90
2018-06-29T03:54:47.660Z,62.27
2018-06-29T03:57:15.792Z,64.42
2018-06-29T03:59:44.021Z,59.75
2018-06-29T04:02:12.151Z,63.75
2018-06-29T04:04:40.453Z,67.60
2018-06-29T04:07:08.705Z,58.68
2018-06-29T04:09:36.806Z,67.87
2018-06-29T04:12:05.076Z,64.87
2018-06-29T04:14:33.109Z,67.15
2018-06-29T04:17:01.009Z,58.20
2018-06-29T04:19:29.093Z,56.90
2018-06-29T04:21:57.247Z,54.40
2018-06-29T04:24:25.534Z,56.10
2018-06-29T04:26:53.619Z,55.17
2018-06-29T04:29:21.660Z,54.38
2018-06-29T04:31:49.460Z,57.17
2018-06-29T04:34:17.618Z,55.33
2018-06-29T04:36:45.825Z,53.33
2018-06-29T04:39:13.852Z,52.83
2018-06-29T04:41:41.640Z,52.03
2018-06-29T04:44:09.800Z,52.73
2018-06-29T04:46:37.998Z,52.07
2018-06-29T04:49:06.152Z,54.75
2018-06-29T04:51:34.358Z,53.30
2018-06-29T04:54:02.428Z,51.63
2018-06-29T04:56:30.473Z,52.90
2018-06-29T04:58:58.577Z,52.13
2018-06-29T05:01:26.635Z,51.65
2018-06-29T05:03:54.939Z,55.10
2018-06-29T05:06:23.075Z,49.57
2018-06-29T05:08:51.476Z,53.17
2018-06-29T05:11:19.560Z,53.80
2018-06-29T05:13:47.641Z,53.80
2018-06-29T05:16:15.778Z,51.60
2018-06-29T05:18:43.983Z,51.53
2018-06-29T05:21:12.016Z,50.20
2018-06-29T05:23:39.818Z,50.80
2018-06-29T05:26:07.890Z,51.10
2018-06-29T05:28:36.219Z,50.67
2018-06-29T05:31:04.359Z,47.80
2018-06-29T05:33:32.393Z,49.05
2018-06-29T05:36:00.601Z,52.65
2018-06-29T05:38:28.625Z,49.08
2018-06-29T05:40:56.446Z,49.33
2018-06-29T05:43:24.673Z,46.75
2018-06-29T05:45:52.892Z,46.13
2018-06-29T05:48:21.128Z,46.42
2018-06-29T05:50:49.328Z,46.33
2018-06-29T05:53:17.508Z,48.13
2018-06-29T05:55:45.583Z,44.25
2018-06-29T05:58:13.757Z,41.45
2018-06-29T06:03:32.533Z,41.28
2018-06-29T06:06:00.589Z,42.27
2018-06-29T06:08:28.687Z,41.60
2018-06-29T06:10:56.769Z,43.60
2018-06-29T06:13:24.938Z,44.83
2018-06-29T06:15:53.134Z,43.02
2018-06-29T06:18:21.152Z,41.53
2018-06-29T06:20:49.344Z,41.77
2018-06-29T06:23:19.731Z,44.08
2018-06-29T06:25:48.293Z,40.88
2018-06-29T06:28:17.138Z,40.43
2018-06-29T06:30:45.414Z,41.18
2018-06-29T06:33:13.654Z,41.92
2018-06-29T06:35:41.975Z,43.52
2018-06-29T06:38:10.384Z,40.33
2018-06-29T06:40:38.543Z,40.10
2018-06-29T06:43:07.031Z,43.13
2018-06-29T06:45:35.404Z,36.60
2018-06-29T06:48:03.685Z,40.50
2018-06-29T06:50:31.777Z,34.10
2018-06-29T06:52:59.900Z,37.80
2018-06-29T06:55:27.699Z,36.30
2018-06-29T06:57:55.772Z,38.92
2018-06-29T07:00:23.940Z,36.65
2018-06-29T07:02:52.041Z,36.03
2018-06-29T07:05:20.188Z,40.05
2018-06-29T07:07:48.271Z,33.65
2018-06-29T07:10:16.318Z,35.80
2018-06-29T07:12:44.669Z,39.48
2018-06-29T07:15:13.004Z,35.03
2018-06-29T07:17:41.052Z,37.50
2018-06-29T07:20:09.250Z,35.68
2018-06-29T07:22:37.407Z,36.63
2018-06-29T07:25:05.836Z,39.90
2018-06-29T07:27:34.374Z,40.08
2018-06-29T07:30:02.398Z,37.67
2018-06-29T07:32:30.556Z,39.83
2018-06-29T07:34:58.724Z,36.00
2018-06-29T07:37:26.844Z,37.20
2018-06-29T07:39:54.973Z,36.20
2018-06-29T07:42:23.152Z,37.13
2018-06-29T07:44:51.193Z,37.53
2018-06-29T07:47:19.462Z,36.68
2018-06-29T07:49:47.485Z,35.75
2018-06-29T07:52:15.592Z,36.73
2018-06-29T07:54:43.923Z,36.58
2018-06-29T07:57:12.190Z,36.38
2018-06-29T07:59:40.210Z,36.85
2018-06-29T08:02:08.358Z,35.73
2018-06-29T08:04:36.384Z,35.75
2018-06-29T08:07:04.506Z,38.30
2018-06-29T08:09:32.541Z,38.10
2018-06-29T08:12:00.932Z,38.50
2018-06-29T08:14:29.082Z,39.23
2018-06-29T08:16:57.007Z,39.10
2018-06-29T08:19:24.941Z,41.68
2018-06-29T08:21:53.117Z,42.30
2018-06-29T08:24:21.333Z,40.38
2018-06-29T08:26:49.480Z,38.92
2018-06-29T08:29:17.559Z,36.33
2018-06-29T08:31:45.749Z,37.78
2018-06-29T08:37:40.068Z,38.50
2018-06-29T08:40:09.232Z,38.00
2018-06-29T08:42:37.714Z,35.38
2018-06-29T08:45:06.674Z,34.80
2018-06-29T08:47:34.972Z,33.28
2018-06-29T08:50:03.179Z,33.25
2018-06-29T08:52:31.464Z,33.42
2018-06-29T08:54:59.559Z,32.40
2018-06-29T08:57:27.625Z,30.77
2018-06-29T08:59:55.664Z,30.77
2018-06-29T09:02:23.816Z,30.60
2018-06-29T09:04:52.075Z,30.50
2018-06-29T09:07:20.169Z,31.23
2018-06-29T09:09:48.293Z,30.50
2018-06-29T09:12:16.327Z,28.12
2018-06-29T09:14:44.650Z,29.52
2018-06-29T09:17:12.681Z,31.25
2018-06-29T09:19:40.782Z,28.75
2018-06-29T09:22:08.815Z,28.57
2018-06-29T09:24:36.941Z,28.87
2018-06-29T09:27:05.063Z,29.42
2018-06-29T09:29:33.174Z,27.27
2018-06-29T09:32:01.467Z,28.30
2018-06-29T09:34:29.637Z,29.98
2018-06-29T09:36:57.691Z,27.60
2018-06-29T09:39:25.896Z,26.23
2018-06-29T09:41:54.152Z,24.37
2018-06-29T09:44:22.219Z,25.30
2018-06-29T09:46:50.281Z,24.90
2018-06-29T09:49:18.341Z,23.27
2018-06-29T09:51:46.693Z,24.05
2018-06-29T09:54:14.685Z,24.23
2018-06-29T09:56:42.829Z,24.55
2018-06-29T09:59:11.045Z,23.20
2018-06-29T10:01:39.124Z,21.90
2018-06-29T10:04:07.202Z,24.03
2018-06-29T10:06:35.506Z,23.62
2018-06-29T10:09:05.622Z,24.02
2018-06-29T10:11:33.776Z,24.70
2018-06-29T10:14:01.953Z,24.87
2018-06-29T10:16:30.046Z,25.20
2018-06-29T10:18:58.103Z,24.50
2018-06-29T10:21:26.285Z,25.68
2018-06-29T10:23:54.417Z,26.37
2018-06-29T10:26:22.420Z,26.10
2018-06-29T10:28:50.837Z,26.45
2018-06-29T10:31:18.963Z,26.55
2018-06-29T10:33:47.069Z,25.85
2018-06-29T10:36:15.204Z,25.70
2018-06-29T10:38:43.454Z,27.95
2018-06-29T10:41:11.469Z,27.27
2018-06-29T10:43:39.670Z,27.17
2018-06-29T10:46:07.824Z,26.33
2018-06-29T10:48:35.926Z,27.55
2018-06-29T10:51:04.190Z,26.25
2018-06-29T10:53:32.449Z,26.40
2018-06-29T10:56:00.544Z,28.45
2018-06-29T10:58:28.592Z,28.98
2018-06-29T11:00:56.671Z,29.30
2018-06-29T11:03:24.733Z,29.40
2018-06-29T11:05:52.849Z,30.10
2018-06-29T11:08:20.873Z,29.27
2018-06-29T11:10:49.193Z,29.80
2018-06-29T11:13:17.226Z,31.40
2018-06-29T11:15:45.337Z,33.42
2018-06-29T11:18:13.489Z,31.30
2018-06-29T11:20:41.666Z,29.05
2018-06-29T11:23:09.857Z,31.40
2018-06-29T11:25:38.117Z,30.90
2018-06-29T11:28:06.325Z,31.52
2018-06-29T11:30:37.263Z,31.52
2018-06-29T11:33:08.497Z,30.82
2018-06-29T11:35:39.597Z,30.10
2018-06-29T11:38:10.746Z,28.83
2018-06-29T11:40:38.519Z,29.23
2018-06-29T11:43:07.362Z,28.90
2018-06-29T11:45:35.404Z,28.27
2018-06-29T11:48:03.596Z,29.12
2018-06-29T11:50:31.676Z,28.60
2018-06-29T11:53:02.717Z,29.35
2018-06-29T11:55:31.346Z,29.72
2018-06-29T11:58:00.954Z,29.50
2018-06-29T12:00:29.150Z,29.80
2018-06-29T12:02:57.454Z,28.15
2018-06-29T12:05:26.255Z,27.75
2018-06-29T12:07:54.756Z,27.35
2018-06-29T12:10:24.290Z,28.70
2018-06-29T12:12:52.294Z,26.45
2018-06-29T12:15:20.454Z,27.50
2018-06-29T12:17:48.637Z,27.80
2018-06-29T12:20:16.726Z,25.50
2018-06-29T12:22:44.812Z,24.67
2018-06-29T12:25:13.080Z,25.02
2018-06-29T12:27:41.180Z,25.00
2018-06-29T12:30:09.410Z,26.15
2018-06-29T12:32:37.588Z,26.70
2018-06-29T12:35:05.997Z,27.55
2018-06-29T12:37:34.182Z,25.43
2018-06-29T12:40:02.272Z,26.57
2018-06-29T12:42:30.400Z,32.83
2018-06-29T12:44:58.482Z,27.13
2018-06-29T12:47:26.940Z,28.12
2018-06-29T12:49:55.067Z,27.15
2018-06-29T12:52:23.185Z,28.75
2018-06-29T12:54:51.295Z,28.35
2018-06-29T12:57:19.430Z,30.90
2018-06-29T12:59:48.162Z,32.05
2018-06-29T13:02:16.225Z,29.00
2018-06-29T13:04:44.353Z,26.10
2018-06-29T13:07:12.598Z,26.82
2018-06-29T13:09:40.652Z,27.52
2018-06-29T13:12:08.701Z,26.15
2018-06-29T13:14:36.999Z,27.73
2018-06-29T13:17:05.285Z,27.80
2018-06-29T13:19:33.437Z,28.90
2018-06-29T13:22:01.766Z,27.20
2018-06-29T13:24:29.785Z,26.40
2018-06-29T13:26:58.196Z,26.05
2018-06-29T13:29:26.225Z,25.43
2018-06-29T13:31:54.047Z,27.40
2018-06-29T13:34:22.105Z,25.82
2018-06-29T13:36:50.356Z,25.70
2018-06-29T13:39:18.501Z,28.20
2018-06-29T13:41:46.499Z,26.97
2018-06-29T13:44:14.794Z,24.40
2018-06-29T13:46:42.884Z,25.45
2018-06-29T13:49:11.004Z,25.95
2018-06-29T13:51:39.719Z,25.35
2018-06-29T13:54:07.993Z,25.40
2018-06-29T13:56:36.116Z,24.98
2018-06-29T13:59:04.141Z,25.02
2018-06-29T14:01:32.433Z,25.27
2018-06-29T14:04:00.727Z,25.55
2018-06-29T14:06:28.787Z,25.07
2018-06-29T14:08:56.903Z,24.98
2018-06-29T14:11:25.021Z,24.73
2018-06-29T14:13:53.069Z,25.40
2018-06-29T14:16:20.964Z,25.57
2018-06-29T14:18:49.068Z,26.55
2018-06-29T14:21:17.110Z,26.37
2018-06-29T14:23:45.207Z,27.90
2018-06-29T14:26:13.488Z,27.95
2018-06-29T14:28:41.525Z,25.63
2018-06-29T14:31:09.723Z,25.83
2018-06-29T14:33:37.883Z,25.25
2018-06-29T14:36:05.994Z,24.67
2018-06-29T14:38:34.328Z,24.47
2018-06-29T14:41:02.727Z,24.40
2018-06-29T14:43:30.602Z,23.60
2018-06-29T14:45:58.701Z,23.70
2018-06-29T14:48:26.955Z,25.10
2018-06-29T14:50:55.099Z,24.57
2018-06-29T14:53:23.102Z,26.00
2018-06-29T14:55:51.180Z,25.57
2018-06-29T14:58:19.218Z,25.10
2018-06-29T15:00:47.113Z,22.90
2018-06-29T15:03:15.288Z,24.32
2018-06-29T15:05:43.466Z,23.67
2018-06-29T15:08:11.535Z,23.25
2018-06-29T15:10:39.837Z,23.15
2018-06-29T15:13:08.124Z,23.38
2018-06-29T15:15:36.447Z,24.10
2018-06-29T15:18:04.551Z,22.42
2018-06-29T15:20:32.718Z,23.43
2018-06-29T15:23:00.917Z,21.80
2018-06-29T15:25:29.060Z,24.27
2018-06-29T15:27:57.457Z,21.37
2018-06-29T15:30:25.629Z,21.30
2018-06-29T15:32:53.690Z,20.67
2018-06-29T15:35:21.984Z,21.57
2018-06-29T15:37:50.280Z,22.50
2018-06-29T15:40:18.317Z,22.77
2018-06-29T15:42:46.414Z,21.42
2018-06-29T15:45:14.614Z,22.10
2018-06-29T15:47:42.758Z,22.37
2018-06-29T15:50:10.836Z,22.77
2018-06-29T15:52:38.976Z,22.63
2018-06-29T15:55:06.997Z,20.97
2018-06-29T15:57:35.160Z,20.40
2018-06-29T16:00:04.414Z,21.42
2018-06-29T16:02:32.557Z,21.65
2018-06-29T16:05:00.601Z,22.87
2018-06-29T16:07:28.886Z,22.70
2018-06-29T16:09:56.952Z,20.90
2018-06-29T16:12:25.105Z,22.15
2018-06-29T16:14:53.214Z,23.70
2018-06-29T16:17:21.251Z,21.95
2018-06-29T16:19:49.352Z,19.77
2018-06-29T16:22:17.436Z,19.92
2018-06-29T16:24:45.473Z,19.70
2018-06-29T16:27:13.613Z,19.77
2018-06-29T16:29:41.808Z,17.95
2018-06-29T16:32:09.613Z,19.20
2018-06-29T16:34:37.925Z,19.57
2018-06-29T16:37:06.277Z,19.20
2018-06-29T16:39:34.373Z,18.17
2018-06-29T16:42:02.477Z,17.87
2018-06-29T16:44:30.355Z,17.77
2018-06-29T16:46:58.260Z,18.37
2018-06-29T16:49:26.345Z,16.50
2018-06-29T16:51:54.485Z,15.30
2018-06-29T16:54:22.572Z,16.17
2018-06-29T16:56:50.953Z,17.60
2018-06-29T16:59:19.109Z,16.70
2018-06-29T17:01:47.223Z,14.10
2018-06-29T17:04:15.260Z,14.23
2018-06-29T17:06:43.346Z,14.38
2018-06-29T17:09:11.500Z,13.25
2018-06-29T17:11:39.406Z,14.35
2018-06-29T17:14:07.478Z,13.65
2018-06-29T17:16:35.545Z,15.78
2018-06-29T17:19:03.769Z,15.20
2018-06-29T17:21:31.832Z,15.90
2018-06-29T17:23:59.875Z,14.78
2018-06-29T17:26:28.161Z,15.58
2018-06-29T17:28:56.298Z,15.55
2018-06-29T17:31:24.316Z,14.50
2018-06-29T17:33:52.447Z,14.40
2018-06-29T17:36:20.429Z,14.55
2018-06-29T17:38:51.308Z,14.73
2018-06-29T17:41:20.200Z,14.25
2018-06-29T17:43:48.724Z,15.00
2018-06-29T17:46:16.916Z,13.75
2018-06-29T17:48:45.560Z,14.45
2018-06-29T17:51:15.388Z,15.08
2018-06-29T17:53:43.622Z,16.20
2018-06-29T17:56:13.360Z,16.30
2018-06-29T17:58:42.727Z,17.37
2018-06-29T18:01:11.018Z,15.55
2018-06-29T18:03:39.179Z,17.83
2018-06-29T18:06:07.225Z,17.00
2018-06-29T18:08:35.443Z,16.97
2018-06-29T18:11:04.019Z,18.45
2018-06-29T18:13:34.281Z,19.70
2018-06-29T18:16:02.593Z,18.80
2018-06-29T18:18:32.450Z,17.75
2018-06-29T18:21:00.468Z,18.15
2018-06-29T18:23:28.939Z,18.65
2018-06-29T18:25:57.764Z,18.57
2018-06-29T18:28:26.286Z,18.45
2018-06-29T18:30:54.668Z,18.40
2018-06-29T18:33:22.944Z,17.92
2018-06-29T18:35:51.104Z,19.30
2018-06-29T18:38:19.193Z,18.95
2018-06-29T18:40:47.249Z,20.02
2018-06-29T18:43:15.302Z,20.30
2018-06-29T18:45:43.480Z,20.10
2018-06-29T18:48:11.655Z,20.37
2018-06-29T18:50:39.752Z,21.70
2018-06-29T18:53:08.024Z,20.97
2018-06-29T18:55:36.174Z,20.50
2018-06-29T18:58:04.272Z,20.70
2018-06-29T19:00:32.538Z,20.97
2018-06-29T19:03:00.795Z,21.48
2018-06-29T19:05:29.089Z,25.00
2018-06-29T19:07:57.253Z,25.97
2018-06-29T19:10:25.451Z,26.77
2018-06-29T19:12:53.636Z,27.65
2018-06-29T19:15:21.663Z,27.97
2018-06-29T19:17:49.875Z,30.32
2018-06-29T19:20:18.147Z,31.20
2018-06-29T19:22:46.338Z,33.75
2018-06-29T19:25:14.377Z,37.90
2018-06-29T19:27:42.485Z,39.85
2018-06-29T19:30:10.721Z,41.00
2018-06-29T19:32:38.814Z,43.57
2018-06-29T19:35:07.172Z,41.40
2018-06-29T19:37:35.376Z,40.58
2018-06-29T19:40:05.684Z,37.48
2018-06-29T19:42:34.264Z,38.05
2018-06-29T19:45:02.440Z,38.00
2018-06-29T19:47:30.655Z,38.85
2018-06-29T19:49:58.736Z,39.23
2018-06-29T19:52:26.968Z,41.30
2018-06-29T19:54:55.254Z,41.33
2018-06-29T19:57:23.608Z,40.95
2018-06-29T19:59:51.535Z,40.83
2018-06-29T20:02:19.788Z,42.23
2018-06-29T20:04:47.865Z,42.35
2018-06-29T20:07:15.958Z,43.83
2018-06-29T20:09:44.088Z,41.87
2018-06-29T20:12:12.192Z,42.67
2018-06-29T20:14:40.269Z,40.48
2018-06-29T20:17:08.330Z,42.67
2018-06-29T20:19:36.620Z,43.47
2018-06-29T20:22:04.801Z,41.65
2018-06-29T20:24:32.979Z,44.30
2018-06-29T20:27:01.021Z,43.55
2018-06-29T20:29:29.212Z,42.93
2018-06-29T20:32:04.583Z,43.75
2018-06-29T20:37:41.508Z,43.52
2018-06-29T20:40:13.101Z,43.78
2018-06-29T20:42:45.408Z,43.35
2018-06-29T20:45:17.981Z,42.27
2018-06-29T20:47:46.962Z,38.28
2018-06-29T20:50:17.888Z,39.92
2018-06-29T20:52:46.236Z,38.63
2018-06-29T20:55:15.800Z,39.58
2018-06-29T20:57:44.952Z,39.50
2018-06-29T21:00:17.556Z,38.90
2018-06-29T21:02:46.885Z,41.00
2018-06-29T21:05:19.552Z,39.20
2018-06-29T21:07:51.045Z,42.65
2018-06-29T21:10:23.483Z,43.92
2018-06-29T21:12:55.117Z,44.98
2018-06-29T21:15:24.554Z,44.25
2018-06-29T21:17:52.795Z,46.63
2018-06-29T21:20:21.155Z,45.23
2018-06-29T21:22:49.249Z,46.02
2018-06-29T21:25:17.498Z,43.70
2018-06-29T21:27:45.496Z,44.17
2018-06-29T21:30:13.459Z,43.50
2018-06-29T21:32:41.229Z,43.75
2018-06-29T21:35:09.023Z,44.40
2018-06-29T21:37:37.215Z,45.05
2018-06-29T21:40:05.476Z,47.55
2018-06-29T21:42:33.667Z,46.13
2018-06-29T21:45:01.777Z,45.60
2018-06-29T21:47:29.785Z,43.80
2018-06-29T21:49:57.965Z,45.33
2018-06-29T21:52:26.722Z,44.40
2018-06-29T21:54:55.040Z,45.30
2018-06-29T21:57:23.116Z,46.75
2018-06-29T21:59:51.304Z,45.23
2018-06-29T22:02:19.413Z,44.98
2018-06-29T22:04:47.564Z,44.18
2018-06-29T22:07:15.641Z,42.63
2018-06-29T22:09:43.798Z,42.73
2018-06-29T22:12:11.957Z,44.08
2018-06-29T22:14:40.121Z,44.47
2018-06-29T22:17:08.201Z,45.88
2018-06-29T22:19:36.207Z,44.20
2018-06-29T22:22:04.357Z,43.28
2018-06-29T22:24:32.533Z,42.95
2018-06-29T22:27:00.829Z,43.95
2018-06-29T22:29:28.973Z,44.95
2018-06-29T22:31:57.184Z,46.50
2018-06-29T22:34:25.364Z,44.98
2018-06-29T22:36:53.383Z,46.83
2018-06-29T22:39:21.182Z,46.73
2018-06-29T22:41:49.355Z,46.13
2018-06-29T22:44:17.509Z,45.48
2018-06-29T22:46:45.616Z,48.25
2018-06-29T22:49:13.656Z,47.83
2018-06-29T22:51:41.749Z,49.00
2018-06-29T22:54:10.142Z,48.95
2018-06-29T22:56:38.280Z,47.33
2018-06-29T22:59:06.175Z,47.83
2018-06-29T23:01:34.428Z,49.45
2018-06-29T23:04:02.325Z,49.65
2018-06-29T23:06:30.465Z,48.23
2018-06-29T23:08:58.318Z,50.17
2018-06-29T23:11:26.604Z,51.35
2018-06-29T23:13:54.620Z,51.33
2018-06-29T23:16:22.792Z,53.05
2018-06-29T23:18:50.881Z,54.15
2018-06-29T23:21:19.033Z,56.10
2018-06-29T23:23:47.084Z,55.40
2018-06-29T23:26:15.287Z,58.17
2018-06-29T23:28:43.444Z,58.93
2018-06-29T23:31:11.568Z,54.53
2018-06-29T23:33:39.608Z,52.67
2018-06-29T23:36:07.679Z,54.03
2018-06-29T23:38:35.765Z,55.00
2018-06-29T23:41:03.800Z,60.23
2018-06-29T23:43:31.896Z,62.20
2018-06-29T23:46:00.170Z,59.77
2018-06-29T23:48:28.248Z,57.55
2018-06-29T23:50:56.312Z,61.10
2018-06-29T23:53:24.409Z,62.98
2018-06-29T23:55:52.605Z,62.87
2018-06-29T23:58:20.769Z,62.25
